Wells, Michigan
Current Conditions -  °F | °C
As of 6:15 PM on Thursday 20 Nov 2014 (Local Time) from KESC Reporting Station
Clear Clear  
Wind Chill:   Ceiling: Unl
Heat Index: 12°   Visibility: 10mi
Dew Point:   Wind: 9mph
Humidity: 62%   Direction: 300°WNW
Pressure: 30.03"   Gusts: NA
Location:  45.78°N, 87.08°W
Report Text: KESC 202315Z AUTO 30008KT 10SM CLR M11/M17 A3003 RMK AO1
Loading
Personal Weather Stations






























Interactive Weather Map New forecast layout! Learn more

10-Day Weather Forecast

Advertisements
Track Severe Weather on mobile